createdAt,value
2022-12-19T00:01:08.760Z,21.97
2022-12-19T00:03:36.795Z,22.93
2022-12-19T00:06:04.666Z,23.37
2022-12-19T00:08:32.136Z,22.67
2022-12-19T00:11:01.089Z,21.87
2022-12-19T00:13:30.055Z,22.33
2022-12-19T00:16:02.260Z,22.53
2022-12-19T00:18:29.587Z,23.43
2022-12-19T00:20:57.711Z,23.00
2022-12-19T00:23:24.975Z,22.60
2022-12-19T00:25:52.271Z,26.00
2022-12-19T00:28:19.540Z,27.58
2022-12-19T00:30:48.690Z,22.97
2022-12-19T00:33:16.036Z,24.63
2022-12-19T00:35:43.382Z,22.73
2022-12-19T00:38:11.250Z,23.93
2022-12-19T00:40:38.506Z,23.30
2022-12-19T00:43:07.740Z,21.80
2022-12-19T00:45:38.756Z,24.23
2022-12-19T00:48:06.364Z,23.30
2022-12-19T00:50:34.843Z,23.77
2022-12-19T00:53:02.351Z,22.07
2022-12-19T00:55:48.184Z,25.27
2022-12-19T00:58:15.471Z,22.13
2022-12-19T01:00:42.882Z,17.03
2022-12-19T01:03:10.624Z,17.60
2022-12-19T01:05:38.383Z,25.37
2022-12-19T01:08:09.363Z,24.20
2022-12-19T01:10:36.635Z,23.10
2022-12-19T01:13:03.962Z,24.33
2022-12-19T01:15:31.226Z,25.93
2022-12-19T01:17:58.539Z,25.30
2022-12-19T01:20:29.912Z,26.53
2022-12-19T01:22:58.582Z,25.40
2022-12-19T01:25:27.607Z,25.70
2022-12-19T01:27:55.351Z,23.67
2022-12-19T01:30:22.614Z,22.00
2022-12-19T01:32:50.332Z,24.40
2022-12-19T01:35:22.098Z,19.93
2022-12-19T01:37:50.829Z,25.30
2022-12-19T01:40:18.499Z,23.37
2022-12-19T01:42:45.761Z,26.63
2022-12-19T01:45:27.668Z,22.27
2022-12-19T01:48:12.339Z,25.87
2022-12-19T01:50:56.646Z,22.50
2022-12-19T01:53:35.235Z,21.70
2022-12-19T01:56:09.968Z,22.60
2022-12-19T01:58:39.032Z,24.33
2022-12-19T02:01:06.809Z,26.43
2022-12-19T02:03:36.197Z,22.83
2022-12-19T02:06:05.160Z,25.13
2022-12-19T02:08:32.891Z,25.90
2022-12-19T02:11:02.287Z,24.03
2022-12-19T02:13:30.452Z,26.40
2022-12-19T02:16:06.869Z,27.53
2022-12-19T02:18:47.554Z,26.13
2022-12-19T02:21:20.919Z,22.67
2022-12-19T02:23:57.964Z,25.00
2022-12-19T02:26:40.642Z,25.03
2022-12-19T02:29:15.054Z,24.50
2022-12-19T02:31:47.534Z,21.77
2022-12-19T02:34:19.378Z,24.17
2022-12-19T02:36:58.397Z,23.50
2022-12-19T02:39:30.579Z,24.17
2022-12-19T02:42:01.970Z,23.13
2022-12-19T02:44:29.323Z,21.97
2022-12-19T02:46:58.893Z,24.17
2022-12-19T02:49:31.036Z,23.80
2022-12-19T02:52:09.381Z,22.80
2022-12-19T02:54:37.754Z,25.20
2022-12-19T02:57:28.175Z,23.03
2022-12-19T03:00:03.005Z,22.63
2022-12-19T03:02:38.865Z,21.60
2022-12-19T03:05:11.560Z,21.17
2022-12-19T03:07:50.621Z,19.83
2022-12-19T03:10:32.425Z,24.37
2022-12-19T03:13:05.197Z,23.77
2022-12-19T03:15:33.321Z,21.67
2022-12-19T03:18:01.318Z,22.87
2022-12-19T03:20:46.687Z,21.50
2022-12-19T03:23:14.532Z,23.73
2022-12-19T03:25:42.431Z,24.03
2022-12-19T03:28:12.948Z,23.13
2022-12-19T03:30:41.845Z,25.03
2022-12-19T03:33:10.895Z,25.17
2022-12-19T03:35:38.614Z,22.10
2022-12-19T03:38:06.597Z,23.23
2022-12-19T03:40:35.196Z,22.03
2022-12-19T03:43:11.905Z,23.80
2022-12-19T03:45:54.479Z,23.03
2022-12-19T03:48:30.884Z,24.93
2022-12-19T03:51:10.164Z,22.50
2022-12-19T03:53:42.517Z,23.77
2022-12-19T03:56:16.000Z,24.33
2022-12-19T03:58:46.379Z,23.67
2022-12-19T04:01:13.928Z,23.10
2022-12-19T04:03:41.299Z,23.33
2022-12-19T04:06:09.113Z,23.73
2022-12-19T04:08:36.724Z,22.73
2022-12-19T04:11:10.567Z,23.50
2022-12-19T04:13:43.957Z,22.27
2022-12-19T04:16:11.246Z,23.50
2022-12-19T04:18:40.241Z,22.63
2022-12-19T04:21:18.304Z,23.07
2022-12-19T04:23:51.724Z,24.27
2022-12-19T04:26:20.415Z,22.73
2022-12-19T04:28:49.229Z,25.77
2022-12-19T04:31:16.939Z,23.20
2022-12-19T04:33:44.257Z,23.97
2022-12-19T04:36:11.741Z,22.07
2022-12-19T04:38:39.033Z,23.33
2022-12-19T04:41:06.422Z,22.73
2022-12-19T04:43:33.913Z,22.53
2022-12-19T04:46:01.197Z,22.13
2022-12-19T04:48:28.540Z,23.03
2022-12-19T04:50:56.226Z,20.50
2022-12-19T04:53:23.712Z,20.77
2022-12-19T04:55:50.991Z,21.10
2022-12-19T04:58:21.825Z,21.97
2022-12-19T05:00:49.831Z,22.80
2022-12-19T05:03:17.126Z,21.20
2022-12-19T05:05:44.442Z,24.40
2022-12-19T05:08:11.965Z,24.63
2022-12-19T05:10:39.411Z,24.57
2022-12-19T05:13:07.620Z,21.67
2022-12-19T05:15:34.982Z,22.67
2022-12-19T05:18:02.227Z,23.57
2022-12-19T05:20:29.773Z,22.73
2022-12-19T05:22:57.099Z,24.70
2022-12-19T05:25:24.399Z,21.83
2022-12-19T05:27:51.759Z,26.00
2022-12-19T05:30:19.094Z,24.13
2022-12-19T05:32:46.476Z,24.03
2022-12-19T05:35:13.875Z,26.37
2022-12-19T05:37:41.142Z,26.77
2022-12-19T05:40:08.753Z,26.00
2022-12-19T05:42:35.976Z,25.20
2022-12-19T05:45:03.252Z,25.17
2022-12-19T05:47:30.909Z,26.67
2022-12-19T05:49:58.341Z,23.07
2022-12-19T05:52:25.615Z,26.90
2022-12-19T05:54:53.242Z,24.60
2022-12-19T05:57:20.608Z,25.03
2022-12-19T05:59:47.858Z,27.10
2022-12-19T06:02:15.232Z,24.03
2022-12-19T06:04:42.674Z,26.17
2022-12-19T06:07:09.963Z,26.47
2022-12-19T06:09:37.280Z,27.73
2022-12-19T06:12:04.644Z,22.13
2022-12-19T06:14:31.939Z,26.87
2022-12-19T06:16:59.244Z,24.40
2022-12-19T06:19:26.608Z,26.50
2022-12-19T06:21:53.856Z,26.13
2022-12-19T06:24:21.975Z,27.47
2022-12-19T06:26:49.899Z,24.50
2022-12-19T06:29:17.385Z,26.33
2022-12-19T06:31:44.890Z,34.40
2022-12-19T06:34:27.106Z,28.63
2022-12-19T06:37:01.212Z,27.90
2022-12-19T06:39:31.650Z,24.90
2022-12-19T06:42:17.751Z,27.47
2022-12-19T06:44:45.047Z,27.10
2022-12-19T06:47:12.343Z,26.70
2022-12-19T06:49:39.626Z,22.30
2022-12-19T06:52:09.273Z,26.57
2022-12-19T06:54:36.692Z,24.10
2022-12-19T06:57:04.107Z,27.43
2022-12-19T06:59:31.509Z,25.27
2022-12-19T07:02:17.324Z,26.73
2022-12-19T07:04:47.797Z,26.47
2022-12-19T07:07:15.410Z,27.57
2022-12-19T07:09:42.702Z,27.63
2022-12-19T07:12:10.022Z,27.00
2022-12-19T07:14:37.299Z,27.67
2022-12-19T07:17:05.049Z,28.40
2022-12-19T07:19:33.484Z,28.20
2022-12-19T07:22:01.603Z,28.80
2022-12-19T07:24:29.161Z,28.33
2022-12-19T07:26:57.017Z,28.63
2022-12-19T07:29:24.333Z,23.23
2022-12-19T07:31:51.657Z,28.37
2022-12-19T07:34:19.031Z,24.83
2022-12-19T07:36:46.334Z,29.20
2022-12-19T07:39:13.661Z,28.77
2022-12-19T07:41:41.099Z,29.47
2022-12-19T07:44:08.637Z,38.38
2022-12-19T07:46:35.978Z,32.30
2022-12-19T07:49:03.414Z,28.70
2022-12-19T07:51:30.786Z,40.35
2022-12-19T07:53:58.352Z,33.17
2022-12-19T07:56:26.983Z,31.03
2022-12-19T07:58:54.455Z,29.30
2022-12-19T08:01:21.840Z,29.63
2022-12-19T08:03:49.196Z,28.17
2022-12-19T08:06:16.569Z,29.10
2022-12-19T08:08:43.851Z,27.40
2022-12-19T08:11:11.152Z,27.30
2022-12-19T08:13:43.290Z,27.13
2022-12-19T08:16:13.786Z,28.93
2022-12-19T08:18:41.166Z,27.03
2022-12-19T08:21:09.232Z,26.50
2022-12-19T08:23:36.566Z,26.13
2022-12-19T08:26:05.047Z,25.60
2022-12-19T08:28:33.761Z,26.33
2022-12-19T08:31:05.966Z,25.23
2022-12-19T08:33:33.256Z,23.97
2022-12-19T08:36:04.259Z,21.50
2022-12-19T08:38:31.792Z,25.53
2022-12-19T08:40:59.061Z,26.40
2022-12-19T08:43:27.567Z,23.13
2022-12-19T08:45:55.035Z,21.13
2022-12-19T08:48:23.769Z,22.30
2022-12-19T08:50:52.166Z,19.47
2022-12-19T08:53:25.815Z,20.60
2022-12-19T08:55:57.606Z,20.97
2022-12-19T08:58:25.160Z,20.73
2022-12-19T09:01:01.730Z,21.50
2022-12-19T09:03:36.736Z,19.70
2022-12-19T09:06:19.399Z,21.70
2022-12-19T09:08:47.077Z,20.97
2022-12-19T09:11:15.887Z,27.13
2022-12-19T09:13:43.815Z,19.80
2022-12-19T09:16:13.836Z,20.60
2022-12-19T09:18:47.891Z,19.90
2022-12-19T09:21:15.713Z,20.07
2022-12-19T09:23:43.458Z,19.53
2022-12-19T09:26:13.951Z,21.00
2022-12-19T09:28:41.835Z,17.97
2022-12-19T09:31:13.745Z,18.50
2022-12-19T09:33:43.635Z,15.93
2022-12-19T09:36:29.187Z,18.80
2022-12-19T09:38:57.345Z,17.20
2022-12-19T09:41:33.974Z,17.23
2022-12-19T09:44:10.955Z,16.43
2022-12-19T09:46:44.821Z,16.63
2022-12-19T09:49:13.841Z,15.80
2022-12-19T09:51:44.189Z,14.47
2022-12-19T09:54:12.148Z,15.43
2022-12-19T09:56:45.686Z,15.03
2022-12-19T09:59:17.008Z,16.13
2022-12-19T10:01:55.340Z,17.37
2022-12-19T10:04:24.899Z,13.73
2022-12-19T10:07:21.975Z,14.33
2022-12-19T10:12:12.718Z,14.50
2022-12-19T10:12:47.597Z,13.70
2022-12-19T10:15:30.823Z,13.20
2022-12-19T10:18:21.459Z,13.80
2022-12-19T10:20:56.558Z,13.77
2022-12-19T10:23:30.380Z,13.63
2022-12-19T10:26:04.336Z,14.27
2022-12-19T10:28:50.690Z,12.87
2022-12-19T10:31:22.931Z,14.27
2022-12-19T10:33:58.705Z,13.67
2022-12-19T10:36:42.315Z,13.23
2022-12-19T10:39:21.077Z,12.77
2022-12-19T10:41:51.399Z,12.63
2022-12-19T10:44:19.064Z,13.17
2022-12-19T10:46:47.725Z,13.40
2022-12-19T10:49:16.689Z,13.13
2022-12-19T10:51:54.394Z,13.20
2022-12-19T10:54:23.218Z,13.60
2022-12-19T10:56:50.567Z,12.87
2022-12-19T10:59:18.718Z,12.47
2022-12-19T11:02:00.425Z,12.97
2022-12-19T11:04:33.850Z,11.90
2022-12-19T11:07:04.535Z,11.67
2022-12-19T11:09:36.531Z,10.57
2022-12-19T11:16:46.633Z,10.27
2022-12-19T11:20:02.735Z,9.83
2022-12-19T11:26:32.471Z,10.83
2022-12-19T11:29:41.738Z,9.80
2022-12-19T11:29:45.592Z,9.60
2022-12-19T11:30:44.240Z,10.20
2022-12-19T11:32:42.925Z,10.10
2022-12-19T11:35:24.469Z,10.40
2022-12-19T11:37:55.489Z,9.53
2022-12-19T11:40:23.384Z,9.07
2022-12-19T11:43:25.662Z,9.43
2022-12-19T11:45:45.948Z,9.40
2022-12-19T11:48:28.851Z,9.87
2022-12-19T11:51:08.171Z,10.23
2022-12-19T11:53:41.068Z,9.27
2022-12-19T11:56:17.804Z,8.67
2022-12-19T11:58:48.186Z,11.10
2022-12-19T12:01:18.654Z,9.93
2022-12-19T12:04:01.849Z,9.73
2022-12-19T12:06:33.062Z,8.03
2022-12-19T12:12:43.414Z,10.00
2022-12-19T12:19:26.337Z,10.50
2022-12-19T12:26:02.017Z,9.97
2022-12-19T12:31:05.599Z,10.33
2022-12-19T12:31:16.818Z,9.53
2022-12-19T12:31:50.267Z,10.10
2022-12-19T12:31:51.871Z,10.40
2022-12-19T12:32:03.749Z,9.20
2022-12-19T12:35:33.127Z,9.53
2022-12-19T12:38:48.031Z,9.87
2022-12-19T12:41:42.324Z,9.93
2022-12-19T12:44:12.234Z,11.13
2022-12-19T12:46:58.648Z,10.70
2022-12-19T12:49:40.931Z,9.83
2022-12-19T12:52:14.497Z,10.30
2022-12-19T12:54:45.529Z,10.60
2022-12-19T12:57:39.031Z,10.27
2022-12-19T13:00:19.264Z,10.90
2022-12-19T13:02:48.542Z,11.67
2022-12-19T13:05:24.739Z,10.37
2022-12-19T13:07:55.487Z,10.67
2022-12-19T13:10:26.736Z,10.70
2022-12-19T13:13:02.077Z,11.93
2022-12-19T13:15:29.819Z,10.33
2022-12-19T13:17:57.053Z,10.70
2022-12-19T13:20:25.093Z,10.43
2022-12-19T13:22:58.322Z,10.63
2022-12-19T13:25:28.753Z,10.33
2022-12-19T13:27:58.534Z,10.13
2022-12-19T13:30:26.821Z,11.17
2022-12-19T13:33:03.521Z,10.87
2022-12-19T13:36:56.600Z,10.37
2022-12-19T13:39:58.421Z,10.40
2022-12-19T13:41:44.662Z,10.33
2022-12-19T13:44:12.331Z,10.70
2022-12-19T13:46:42.567Z,10.13
2022-12-19T13:49:19.908Z,9.47
2022-12-19T13:51:53.382Z,11.07
2022-12-19T13:54:26.808Z,10.77
2022-12-19T13:56:54.988Z,10.57
2022-12-19T13:59:23.899Z,11.07
2022-12-19T14:01:53.301Z,10.90
2022-12-19T14:04:29.317Z,9.43
2022-12-19T14:07:01.724Z,10.93
2022-12-19T14:11:30.476Z,11.57
2022-12-19T14:13:49.817Z,13.03
2022-12-19T14:15:34.390Z,13.80
2022-12-19T14:18:08.292Z,13.30
2022-12-19T14:22:01.897Z,12.53
2022-12-19T14:23:42.692Z,13.37
2022-12-19T14:28:25.081Z,13.13
2022-12-19T14:29:06.571Z,12.43
2022-12-19T14:31:35.712Z,13.47
2022-12-19T14:36:52.943Z,11.43
2022-12-19T14:39:28.779Z,12.00
2022-12-19T14:43:55.874Z,13.50
2022-12-19T14:52:35.337Z,14.40
2022-12-19T14:54:07.009Z,12.80
2022-12-19T14:54:13.937Z,12.50
2022-12-19T14:57:00.228Z,11.77
2022-12-19T14:59:35.170Z,12.53
2022-12-19T15:02:09.521Z,11.40
2022-12-19T15:04:52.764Z,10.83
2022-12-19T15:07:22.805Z,11.67
2022-12-19T15:11:02.370Z,12.40
2022-12-19T15:14:50.871Z,11.43
2022-12-19T15:16:02.181Z,11.83
2022-12-19T15:18:39.318Z,11.40
2022-12-19T15:21:08.128Z,11.33
2022-12-19T15:23:35.747Z,9.67
2022-12-19T15:26:06.591Z,11.23
2022-12-19T15:28:39.428Z,11.80
2022-12-19T15:31:11.294Z,11.13
2022-12-19T15:33:59.792Z,12.60
2022-12-19T15:36:25.944Z,11.40
2022-12-19T15:38:53.242Z,11.83
2022-12-19T15:41:22.748Z,12.47
2022-12-19T15:44:07.513Z,12.13
2022-12-19T15:46:34.914Z,11.63
2022-12-19T15:49:02.401Z,11.97
2022-12-19T15:51:29.765Z,11.83
2022-12-19T15:54:04.114Z,10.37
2022-12-19T15:56:53.572Z,11.47
2022-12-19T15:59:36.446Z,11.00
2022-12-19T16:02:13.660Z,10.77
2022-12-19T16:04:41.226Z,10.60
2022-12-19T16:07:18.763Z,10.83
2022-12-19T16:09:48.905Z,9.67
2022-12-19T16:12:17.438Z,10.77
2022-12-19T16:14:45.870Z,10.93
2022-12-19T16:17:15.558Z,11.80
2022-12-19T16:19:42.883Z,13.00
2022-12-19T16:22:16.939Z,11.20
2022-12-19T16:24:44.248Z,11.33
2022-12-19T16:27:14.402Z,11.53
2022-12-19T16:29:42.028Z,10.17
2022-12-19T16:32:12.452Z,10.80
2022-12-19T16:34:41.375Z,10.10
2022-12-19T16:37:08.676Z,10.97
2022-12-19T16:39:36.142Z,10.47
2022-12-19T16:42:11.678Z,10.77
2022-12-19T16:44:39.096Z,10.97
2022-12-19T16:47:17.603Z,9.97
2022-12-19T16:49:45.598Z,11.27
2022-12-19T16:52:13.348Z,10.77
2022-12-19T16:54:40.698Z,10.93
2022-12-19T16:57:16.432Z,11.33
2022-12-19T16:59:43.759Z,11.57
2022-12-19T17:02:26.375Z,10.80
2022-12-19T17:04:54.287Z,10.37
2022-12-19T17:07:21.682Z,11.57
2022-12-19T17:09:49.021Z,11.40
2022-12-19T17:12:18.217Z,12.50
2022-12-19T17:14:45.798Z,12.30
2022-12-19T17:17:14.777Z,11.97
2022-12-19T17:19:44.941Z,12.77
2022-12-19T17:22:12.721Z,11.47
2022-12-19T17:24:40.034Z,11.50
2022-12-19T17:27:07.336Z,12.40
2022-12-19T17:29:34.624Z,12.03
2022-12-19T17:32:02.011Z,11.83
2022-12-19T17:34:30.866Z,11.90
2022-12-19T17:36:59.842Z,13.37
2022-12-19T17:39:31.547Z,12.03
2022-12-19T17:42:01.416Z,13.10
2022-12-19T17:44:28.746Z,16.10
2022-12-19T17:46:56.109Z,13.43
2022-12-19T17:49:41.689Z,14.23
2022-12-19T17:52:14.353Z,14.00
2022-12-19T17:54:41.749Z,13.77
2022-12-19T17:57:18.383Z,14.10
2022-12-19T17:59:48.754Z,12.60
2022-12-19T18:02:25.164Z,13.40
2022-12-19T18:04:52.869Z,13.27
2022-12-19T18:07:20.464Z,13.57
2022-12-19T18:09:49.230Z,12.57
2022-12-19T18:12:16.503Z,12.60
2022-12-19T18:14:43.793Z,12.70
2022-12-19T18:17:12.842Z,12.43
2022-12-19T18:19:40.213Z,11.03
2022-12-19T18:22:13.243Z,12.70
2022-12-19T18:24:40.624Z,12.23
2022-12-19T18:27:07.938Z,13.70
2022-12-19T18:29:35.482Z,11.57
2022-12-19T18:32:02.764Z,11.77
2022-12-19T18:34:31.135Z,13.20
2022-12-19T18:36:58.449Z,12.07
2022-12-19T18:39:27.106Z,11.57
2022-12-19T18:41:54.898Z,12.10
2022-12-19T18:44:25.364Z,11.07
2022-12-19T18:46:53.313Z,9.57
2022-12-19T18:49:20.979Z,11.37
2022-12-19T18:51:49.909Z,9.57
2022-12-19T18:54:18.823Z,10.80
2022-12-19T18:56:47.193Z,12.30
2022-12-19T18:59:14.755Z,10.43
2022-12-19T19:01:43.213Z,11.20
2022-12-19T19:04:13.074Z,9.37
2022-12-19T19:06:46.685Z,9.48
2022-12-19T19:09:17.550Z,10.70
2022-12-19T19:11:56.187Z,9.30
2022-12-19T19:14:25.752Z,9.20
2022-12-19T19:16:53.131Z,10.27
2022-12-19T19:19:20.667Z,10.23
2022-12-19T19:21:48.056Z,10.67
2022-12-19T19:24:20.665Z,10.30
2022-12-19T19:26:48.365Z,10.00
2022-12-19T19:29:18.754Z,9.80
2022-12-19T19:31:47.281Z,9.57
2022-12-19T19:34:16.157Z,10.40
2022-12-19T19:36:45.012Z,9.30
2022-12-19T19:39:13.901Z,10.37
2022-12-19T19:41:41.564Z,10.30
2022-12-19T19:44:08.906Z,11.23
2022-12-19T19:46:37.420Z,11.23
2022-12-19T19:49:04.819Z,11.27
2022-12-19T19:51:32.452Z,11.23
2022-12-19T19:53:59.744Z,10.30
2022-12-19T19:56:27.272Z,11.27
2022-12-19T19:58:55.252Z,11.17
2022-12-19T20:01:22.709Z,9.97
2022-12-19T20:03:50.303Z,10.77
2022-12-19T20:06:19.213Z,9.93
2022-12-19T20:08:46.814Z,11.93
2022-12-19T20:11:14.395Z,10.30
2022-12-19T20:13:41.660Z,10.80
2022-12-19T20:16:11.085Z,8.13
2022-12-19T20:18:39.922Z,9.03
2022-12-19T20:21:13.589Z,8.87
2022-12-19T20:23:41.992Z,9.73
2022-12-19T20:26:09.659Z,11.23
2022-12-19T20:28:41.001Z,10.97
2022-12-19T20:31:13.178Z,9.13
2022-12-19T20:33:41.012Z,8.37
2022-12-19T20:36:10.068Z,8.27
2022-12-19T20:38:37.495Z,8.80
2022-12-19T20:41:04.944Z,8.50
2022-12-19T20:43:32.388Z,8.77
2022-12-19T20:46:07.654Z,7.47
2022-12-19T20:48:35.057Z,8.17
2022-12-19T20:51:04.511Z,8.40
2022-12-19T20:53:32.755Z,8.40
2022-12-19T20:56:00.816Z,7.33
2022-12-19T20:58:28.918Z,8.37
2022-12-19T21:00:56.931Z,9.23
2022-12-19T21:03:29.326Z,8.80
2022-12-19T21:05:57.314Z,8.63
2022-12-19T21:08:25.428Z,8.33
2022-12-19T21:10:52.838Z,7.53
2022-12-19T21:13:20.372Z,8.87
2022-12-19T21:15:52.312Z,7.50
2022-12-19T21:18:19.846Z,7.30
2022-12-19T21:20:47.175Z,7.70
2022-12-19T21:23:14.716Z,7.97
2022-12-19T21:25:42.126Z,7.43
2022-12-19T21:28:10.192Z,8.47
2022-12-19T21:30:37.815Z,8.07
2022-12-19T21:33:05.351Z,7.53
2022-12-19T21:35:34.689Z,7.37
2022-12-19T21:38:02.384Z,7.57
2022-12-19T21:40:29.758Z,8.47
2022-12-19T21:42:57.017Z,8.40
2022-12-19T21:45:24.335Z,8.07
2022-12-19T21:47:51.650Z,8.00
2022-12-19T21:50:18.990Z,7.87
2022-12-19T21:52:48.189Z,8.67
2022-12-19T21:55:17.449Z,7.73
2022-12-19T21:57:44.704Z,7.63
2022-12-19T22:00:13.358Z,9.37
2022-12-19T22:02:50.816Z,8.13
2022-12-19T22:05:27.985Z,8.47
2022-12-19T22:07:55.265Z,10.07
2022-12-19T22:10:22.620Z,9.27
2022-12-19T22:12:49.962Z,9.10
2022-12-19T22:15:17.237Z,7.97
2022-12-19T22:17:44.652Z,9.45
2022-12-19T22:20:11.961Z,8.83
2022-12-19T22:22:39.358Z,8.77
2022-12-19T22:25:06.879Z,7.53
2022-12-19T22:27:34.173Z,8.57
2022-12-19T22:30:06.706Z,8.27
2022-12-19T22:32:38.097Z,8.27
2022-12-19T22:35:07.903Z,8.50
2022-12-19T22:37:35.262Z,8.13
2022-12-19T22:40:04.065Z,9.20
2022-12-19T22:42:31.429Z,8.43
2022-12-19T22:44:59.316Z,9.13
2022-12-19T22:47:26.691Z,7.70
2022-12-19T22:49:54.016Z,8.50
2022-12-19T22:52:21.356Z,7.77
2022-12-19T22:54:48.653Z,9.07
2022-12-19T22:57:16.017Z,9.03
2022-12-19T22:59:43.378Z,8.87
2022-12-19T23:02:10.949Z,9.40
2022-12-19T23:04:38.579Z,9.03
2022-12-19T23:07:05.875Z,10.10
2022-12-19T23:09:33.199Z,9.07
2022-12-19T23:12:00.498Z,9.83
2022-12-19T23:14:27.786Z,8.00
2022-12-19T23:16:55.134Z,8.43
2022-12-19T23:19:22.453Z,8.87
2022-12-19T23:21:49.767Z,8.90
2022-12-19T23:24:20.597Z,8.50
2022-12-19T23:26:47.904Z,8.37
2022-12-19T23:29:16.088Z,8.93
2022-12-19T23:31:44.904Z,8.80
2022-12-19T23:34:12.679Z,8.30
2022-12-19T23:39:27.507Z,8.67
2022-12-19T23:41:54.804Z,7.73
2022-12-19T23:44:22.408Z,8.03
2022-12-19T23:46:49.682Z,7.47
2022-12-19T23:49:17.024Z,7.80
2022-12-19T23:51:44.333Z,8.07
2022-12-19T23:54:11.598Z,7.87
2022-12-19T23:56:38.992Z,6.40
2022-12-19T23:59:06.404Z,7.00
